createdAt,value
2019-05-13T00:00:14.178Z,102341.00
2019-05-13T00:02:43.805Z,102340.00
2019-05-13T00:05:14.458Z,102334.00
2019-05-13T00:07:43.790Z,102340.00
2019-05-13T00:10:14.350Z,102345.00
2019-05-13T00:12:43.908Z,102338.00
2019-05-13T00:15:13.968Z,102341.00
2019-05-13T00:17:44.319Z,102339.00
2019-05-13T00:20:14.108Z,102337.00
2019-05-13T00:22:44.719Z,102347.00
2019-05-13T00:25:14.294Z,102348.00
2019-05-13T00:27:43.760Z,102340.00
2019-05-13T00:30:14.233Z,102347.00
2019-05-13T00:32:44.585Z,102340.00
2019-05-13T00:35:14.122Z,102342.00
2019-05-13T00:37:44.288Z,102339.00
2019-05-13T00:40:14.339Z,102346.00
2019-05-13T00:42:44.216Z,102346.00
2019-05-13T00:45:14.480Z,102347.00
2019-05-13T00:47:43.666Z,102356.00
2019-05-13T00:50:14.291Z,102358.00
2019-05-13T00:52:44.563Z,102355.00
2019-05-13T00:55:11.760Z,102352.00
2019-05-13T00:57:39.602Z,102365.00
2019-05-13T01:00:07.691Z,102360.00
2019-05-13T01:02:35.601Z,102352.00
2019-05-13T01:05:04.390Z,102354.00
2019-05-13T01:07:34.114Z,102364.00
2019-05-13T01:10:04.169Z,102358.00
2019-05-13T01:12:34.303Z,102361.00
2019-05-13T01:15:03.919Z,102352.00
2019-05-13T01:17:33.936Z,102366.00
2019-05-13T01:20:03.944Z,102363.00
2019-05-13T01:22:31.208Z,102359.00
2019-05-13T01:24:59.042Z,102366.00
2019-05-13T01:27:26.937Z,102364.00
2019-05-13T01:29:54.774Z,102364.00
2019-05-13T01:32:36.778Z,102367.00
2019-05-13T01:35:05.138Z,102367.00
2019-05-13T01:37:42.372Z,102366.00
2019-05-13T01:40:05.065Z,102376.00
2019-05-13T01:42:33.732Z,102377.00
2019-05-13T01:45:01.633Z,102370.00
2019-05-13T01:47:29.481Z,102373.00
2019-05-13T01:49:57.360Z,102378.00
2019-05-13T01:52:25.253Z,102376.00
2019-05-13T01:54:54.381Z,102386.00
2019-05-13T01:57:23.811Z,102374.00
2019-05-13T01:59:53.836Z,102387.00
2019-05-13T02:02:29.105Z,102392.00
2019-05-13T02:04:56.984Z,102394.00
2019-05-13T02:07:24.891Z,102392.00
2019-05-13T02:09:53.517Z,102391.00
2019-05-13T02:12:24.036Z,102392.00
2019-05-13T02:14:53.422Z,102389.00
2019-05-13T02:17:23.419Z,102392.00
2019-05-13T02:19:51.312Z,102397.00
2019-05-13T02:22:20.281Z,102396.00
2019-05-13T02:24:48.220Z,102390.00
2019-05-13T02:27:16.131Z,102393.00
2019-05-13T02:29:44.104Z,102393.00
2019-05-13T02:32:13.606Z,102402.00
2019-05-13T02:34:43.662Z,102397.00
2019-05-13T02:37:12.865Z,102397.00
2019-05-13T02:39:42.779Z,102385.00
2019-05-13T02:42:13.214Z,102389.00
2019-05-13T02:44:43.642Z,102388.00
2019-05-13T02:47:12.302Z,102390.00
2019-05-13T02:49:42.981Z,102401.00
2019-05-13T02:52:13.012Z,102396.00
2019-05-13T02:54:42.702Z,102394.00
2019-05-13T02:57:12.249Z,102370.00
2019-05-13T02:59:42.041Z,102390.00
2019-05-13T03:02:12.032Z,102398.00
2019-05-13T03:04:39.188Z,102398.00
2019-05-13T03:07:07.015Z,102398.00
2019-05-13T03:09:34.896Z,102402.00
2019-05-13T03:12:04.101Z,102391.00
2019-05-13T03:14:32.622Z,102393.00
2019-05-13T03:17:13.009Z,102404.00
2019-05-13T03:19:43.234Z,102401.00
2019-05-13T03:22:13.514Z,102410.00
2019-05-13T03:24:43.001Z,102405.00
2019-05-13T03:27:12.805Z,102405.00
2019-05-13T03:29:43.215Z,102408.00
2019-05-13T03:32:16.495Z,102404.00
2019-05-13T03:34:45.595Z,102401.00
2019-05-13T03:37:15.292Z,102410.00
2019-05-13T03:39:43.460Z,102402.00
2019-05-13T03:42:13.192Z,102405.00
2019-05-13T03:44:43.815Z,102404.00
2019-05-13T03:47:12.837Z,102410.00
2019-05-13T03:49:43.404Z,102415.00
2019-05-13T03:52:13.423Z,102419.00
2019-05-13T03:54:43.566Z,102425.00
2019-05-13T03:57:12.565Z,102436.00
2019-05-13T03:59:43.623Z,102431.00
2019-05-13T04:02:12.997Z,102420.00
2019-05-13T04:04:42.327Z,102431.00
2019-05-13T04:07:12.962Z,102437.00
2019-05-13T04:09:42.540Z,102445.00
2019-05-13T04:12:13.190Z,102445.00
2019-05-13T04:14:42.418Z,102443.00
2019-05-13T04:17:12.539Z,102441.00
2019-05-13T04:19:42.340Z,102439.00
2019-05-13T04:22:12.614Z,102447.00
2019-05-13T04:24:42.543Z,102442.00
2019-05-13T04:27:12.891Z,102456.00
2019-05-13T04:29:39.073Z,102455.00
2019-05-13T04:32:07.006Z,102460.00
2019-05-13T04:34:34.872Z,102461.00
2019-05-13T04:37:03.889Z,102460.00
2019-05-13T04:39:44.475Z,102465.00
2019-05-13T04:42:02.420Z,102472.00
2019-05-13T04:44:32.303Z,102468.00
2019-05-13T04:47:03.225Z,102470.00
2019-05-13T04:49:32.690Z,102481.00
2019-05-13T04:52:03.419Z,102479.00
2019-05-13T04:54:52.801Z,102463.00
2019-05-13T04:57:22.665Z,102472.00
2019-05-13T04:59:51.781Z,102474.00
2019-05-13T05:02:51.261Z,102480.00
2019-05-13T05:06:03.200Z,102431.00
2019-05-13T05:09:03.286Z,102490.00
2019-05-13T05:12:32.075Z,102484.00
2019-05-13T05:15:55.478Z,102490.00
2019-05-13T05:19:23.675Z,102490.00
2019-05-13T05:22:15.049Z,102497.00
2019-05-13T05:25:18.235Z,102499.00
2019-05-13T05:28:33.197Z,102509.00
2019-05-13T05:31:27.862Z,102515.00
2019-05-13T05:35:08.141Z,102506.00
2019-05-13T05:38:35.461Z,102499.00
2019-05-13T05:41:06.573Z,102498.00
2019-05-13T05:43:37.614Z,102505.00
2019-05-13T05:46:06.512Z,102508.00
2019-05-13T05:48:36.583Z,102502.00
2019-05-13T05:51:08.777Z,102497.00
2019-05-13T05:53:42.231Z,102505.00
2019-05-13T05:56:15.072Z,102508.00
2019-05-13T05:58:45.106Z,102509.00
2019-05-13T06:01:15.716Z,102506.00
2019-05-13T06:03:44.300Z,102495.00
2019-05-13T06:06:13.948Z,102499.00
2019-05-13T06:08:42.814Z,102502.00
2019-05-13T06:11:11.728Z,102507.00
2019-05-13T06:13:42.047Z,102500.00
2019-05-13T06:16:12.197Z,102494.00
2019-05-13T06:18:43.738Z,102503.00
2019-05-13T06:21:12.293Z,102499.00
2019-05-13T06:23:41.878Z,102502.00
2019-05-13T06:26:12.516Z,102501.00
2019-05-13T06:28:41.450Z,102494.00
2019-05-13T06:31:09.473Z,102498.00
2019-05-13T06:33:37.507Z,102506.00
2019-05-13T06:36:05.702Z,102495.00
2019-05-13T06:38:33.687Z,102503.00
2019-05-13T06:41:07.132Z,102494.00
2019-05-13T06:43:31.631Z,102510.00
2019-05-13T06:46:01.880Z,102518.00
2019-05-13T06:48:29.600Z,102504.00
2019-05-13T06:50:57.589Z,102507.00
2019-05-13T06:53:28.895Z,102497.00
2019-05-13T06:55:56.789Z,102509.00
2019-05-13T06:58:24.643Z,102516.00
2019-05-13T07:00:57.276Z,102499.00
2019-05-13T07:03:22.564Z,102506.00
2019-05-13T07:05:52.435Z,102511.00
2019-05-13T07:08:22.162Z,102495.00
2019-05-13T07:10:51.554Z,102506.00
2019-05-13T07:13:21.633Z,102423.00
2019-05-13T07:15:51.949Z,102446.00
2019-05-13T07:18:21.725Z,102509.00
2019-05-13T07:20:48.946Z,102499.00
2019-05-13T07:23:17.010Z,102498.00
2019-05-13T07:25:44.965Z,102504.00
2019-05-13T07:28:12.932Z,102494.00
2019-05-13T07:30:43.206Z,102492.00
2019-05-13T07:33:12.867Z,102489.00
2019-05-13T07:35:44.647Z,102489.00
2019-05-13T07:38:11.854Z,102498.00
2019-05-13T07:40:41.768Z,102497.00
2019-05-13T07:43:11.769Z,102514.00
2019-05-13T07:45:42.068Z,102499.00
2019-05-13T07:48:20.619Z,102502.00
2019-05-13T07:50:51.651Z,102503.00
2019-05-13T07:53:12.229Z,102502.00
2019-05-13T07:55:38.925Z,102502.00
2019-05-13T07:58:07.103Z,102504.00
2019-05-13T08:00:35.005Z,102500.00
2019-05-13T08:03:03.095Z,102491.00
2019-05-13T08:05:31.498Z,102484.00
2019-05-13T08:08:02.066Z,102485.00
2019-05-13T08:10:29.359Z,102488.00
2019-05-13T08:13:04.096Z,102498.00
2019-05-13T08:15:32.194Z,102501.00
2019-05-13T08:18:02.106Z,102496.00
2019-05-13T08:20:32.577Z,102493.00
2019-05-13T08:23:02.533Z,102494.00
2019-05-13T08:25:31.558Z,102484.00
2019-05-13T08:28:01.870Z,102495.00
2019-05-13T08:30:31.832Z,102489.00
2019-05-13T08:33:01.785Z,102495.00
2019-05-13T08:35:31.486Z,102483.00
2019-05-13T08:38:01.403Z,102481.00
2019-05-13T08:40:31.814Z,102478.00
2019-05-13T08:43:01.392Z,102472.00
2019-05-13T08:45:31.520Z,102472.00
2019-05-13T08:48:01.767Z,102473.00
2019-05-13T08:50:32.220Z,102478.00
2019-05-13T08:52:59.157Z,102476.00
2019-05-13T08:55:27.104Z,102473.00
2019-05-13T08:57:55.360Z,102466.00
2019-05-13T09:00:58.644Z,102466.00
2019-05-13T09:03:25.103Z,102471.00
2019-05-13T09:05:53.930Z,102469.00
2019-05-13T09:08:22.866Z,102468.00
2019-05-13T09:10:52.096Z,102471.00
2019-05-13T09:13:22.328Z,102463.00
2019-05-13T09:15:51.716Z,102457.00
2019-05-13T09:18:22.829Z,102451.00
2019-05-13T09:20:52.079Z,102466.00
2019-05-13T09:23:22.214Z,102455.00
2019-05-13T09:25:52.164Z,102447.00
2019-05-13T09:28:21.815Z,102447.00
2019-05-13T09:30:53.023Z,102446.00
2019-05-13T09:33:21.946Z,102454.00
2019-05-13T09:35:53.341Z,102451.00
2019-05-13T09:38:22.126Z,102454.00
2019-05-13T09:40:52.897Z,102440.00
2019-05-13T09:43:22.188Z,102444.00
2019-05-13T09:45:52.358Z,102388.00
2019-05-13T09:48:22.519Z,102432.00
2019-05-13T09:50:51.674Z,102427.00
2019-05-13T09:53:22.308Z,102432.00
2019-05-13T09:55:52.157Z,102428.00
2019-05-13T09:58:22.306Z,102440.00
2019-05-13T10:00:52.495Z,102431.00
2019-05-13T10:03:26.653Z,102439.00
2019-05-13T10:05:51.780Z,102433.00
2019-05-13T10:08:22.027Z,102441.00
2019-05-13T10:10:52.321Z,102439.00
2019-05-13T10:13:22.623Z,102419.00
2019-05-13T10:15:49.954Z,102417.00
2019-05-13T10:18:18.084Z,102404.00
2019-05-13T10:20:58.026Z,102429.00
2019-05-13T10:23:24.464Z,102427.00
2019-05-13T10:25:55.895Z,102425.00
2019-05-13T10:28:24.868Z,102414.00
2019-05-13T10:30:53.311Z,102411.00
2019-05-13T10:33:22.313Z,102412.00
2019-05-13T10:35:52.664Z,102413.00
2019-05-13T10:38:22.762Z,102401.00
2019-05-13T10:43:30.898Z,102396.00
2019-05-13T10:45:52.237Z,102399.00
2019-05-13T10:48:22.024Z,102417.00
2019-05-13T10:50:52.910Z,102399.00
2019-05-13T10:53:22.027Z,102412.00
2019-05-13T10:55:52.156Z,102392.00
2019-05-13T10:58:23.041Z,102403.00
2019-05-13T11:00:52.885Z,102400.00
2019-05-13T11:03:22.909Z,102398.00
2019-05-13T11:05:52.477Z,102391.00
2019-05-13T11:08:22.521Z,102388.00
2019-05-13T11:10:53.080Z,102371.00
2019-05-13T11:13:23.254Z,102374.00
2019-05-13T11:15:57.441Z,102381.00
2019-05-13T11:18:24.128Z,102389.00
2019-05-13T11:20:51.116Z,102385.00
2019-05-13T11:23:19.107Z,102372.00
2019-05-13T11:25:47.022Z,102381.00
2019-05-13T11:36:43.124Z,102396.00
2019-05-13T11:39:12.703Z,102371.00
2019-05-13T11:41:42.457Z,102367.00
2019-05-13T11:44:14.127Z,102362.00
2019-05-13T11:46:38.839Z,102360.00
2019-05-13T11:49:06.672Z,102364.00
2019-05-13T11:51:34.584Z,102359.00
2019-05-13T11:54:02.817Z,102345.00
2019-05-13T11:56:33.712Z,102344.00
2019-05-13T11:59:04.074Z,102335.00
2019-05-13T12:01:33.457Z,102345.00
2019-05-13T12:04:02.849Z,102350.00
2019-05-13T12:06:33.908Z,102343.00
2019-05-13T12:09:03.231Z,102341.00
2019-05-13T12:11:33.323Z,102350.00
2019-05-13T12:14:01.140Z,102332.00
2019-05-13T12:16:29.073Z,102333.00
2019-05-13T12:18:57.058Z,102331.00
2019-05-13T12:21:25.687Z,102315.00
2019-05-13T12:23:54.455Z,102321.00
2019-05-13T12:26:23.758Z,102313.00
2019-05-13T12:28:53.515Z,102317.00
2019-05-13T12:31:23.119Z,102317.00
2019-05-13T12:33:52.291Z,102317.00
2019-05-13T12:36:23.461Z,102308.00
2019-05-13T12:38:53.523Z,102317.00
2019-05-13T12:41:22.893Z,102314.00
2019-05-13T12:43:53.954Z,102314.00
2019-05-13T12:46:24.699Z,102312.00
2019-05-13T12:48:50.996Z,102303.00
2019-05-13T12:51:19.381Z,102307.00
2019-05-13T12:53:48.091Z,102297.00
2019-05-13T12:56:16.028Z,102302.00
2019-05-13T12:58:43.973Z,102304.00
2019-05-13T13:01:12.955Z,102306.00
2019-05-13T13:03:40.957Z,102285.00
2019-05-13T13:06:27.189Z,102285.00
2019-05-13T13:08:47.537Z,102283.00
2019-05-13T13:11:09.017Z,102275.00
2019-05-13T13:13:56.615Z,102288.00
2019-05-13T13:16:07.028Z,102283.00
2019-05-13T13:18:35.485Z,102277.00
2019-05-13T13:21:07.192Z,102282.00
2019-05-13T13:23:34.167Z,102291.00
2019-05-13T13:26:03.285Z,102285.00
2019-05-13T13:28:34.197Z,102271.00
2019-05-13T13:31:04.194Z,102268.00
2019-05-13T13:33:34.174Z,102274.00
2019-05-13T13:36:04.339Z,102275.00
2019-05-13T13:38:32.614Z,102271.00
2019-05-13T13:41:03.899Z,102270.00
2019-05-13T13:43:36.853Z,102249.00
2019-05-13T13:46:23.206Z,102263.00
2019-05-13T13:48:33.319Z,102261.00
2019-05-13T13:51:04.008Z,102262.00
2019-05-13T13:53:33.238Z,102256.00
2019-05-13T13:56:02.291Z,102251.00
2019-05-13T13:58:32.734Z,102246.00
2019-05-13T14:01:10.490Z,102251.00
2019-05-13T14:03:34.049Z,102251.00
2019-05-13T14:06:05.726Z,102246.00
2019-05-13T14:06:25.609Z,102393.00
2019-05-13T14:08:30.222Z,102245.00
2019-05-13T14:10:58.242Z,102239.00
2019-05-13T14:13:26.199Z,102253.00
2019-05-13T14:15:54.107Z,102232.00
2019-05-13T14:18:26.712Z,102234.00
2019-05-13T14:20:52.894Z,102229.00
2019-05-13T14:23:21.553Z,102218.00
2019-05-13T14:25:52.155Z,102216.00
2019-05-13T14:28:22.873Z,102228.00
2019-05-13T14:30:51.455Z,102242.00
2019-05-13T14:33:20.629Z,102223.00
2019-05-13T14:35:48.732Z,102217.00
2019-05-13T14:38:16.703Z,102223.00
2019-05-13T14:40:45.014Z,102228.00
2019-05-13T14:43:13.409Z,102209.00
2019-05-13T14:45:41.394Z,102211.00
2019-05-13T14:48:09.369Z,102209.00
2019-05-13T14:50:37.222Z,102205.00
2019-05-13T14:53:05.250Z,102207.00
2019-05-13T14:55:33.212Z,102203.00
2019-05-13T14:58:01.675Z,102209.00
2019-05-13T15:00:33.238Z,102211.00
2019-05-13T15:03:03.088Z,102217.00
2019-05-13T15:05:31.483Z,102225.00
2019-05-13T15:07:59.500Z,102222.00
2019-05-13T15:10:27.476Z,102197.00
2019-05-13T15:12:55.792Z,102203.00
2019-05-13T15:15:23.759Z,102215.00
2019-05-13T15:17:52.081Z,102214.00
2019-05-13T15:20:21.840Z,102206.00
2019-05-13T15:22:51.939Z,102207.00
2019-05-13T15:25:22.306Z,102175.00
2019-05-13T15:27:52.798Z,102204.00
2019-05-13T15:30:21.980Z,102213.00
2019-05-13T15:32:52.543Z,102225.00
2019-05-13T15:35:20.181Z,102218.00
2019-05-13T15:37:48.165Z,102203.00
2019-05-13T15:40:16.098Z,102196.00
2019-05-13T15:42:44.490Z,102213.00
2019-05-13T15:45:12.794Z,102225.00
2019-05-13T15:47:40.651Z,102213.00
2019-05-13T15:50:09.102Z,102211.00
2019-05-13T15:52:37.149Z,102212.00
2019-05-13T15:55:05.464Z,102206.00
2019-05-13T15:57:34.417Z,102209.00
2019-05-13T16:00:02.874Z,102202.00
2019-05-13T16:02:31.436Z,102202.00
2019-05-13T16:05:02.135Z,102204.00
2019-05-13T16:07:30.833Z,102198.00
2019-05-13T16:09:58.794Z,102202.00
2019-05-13T16:12:26.773Z,102213.00
2019-05-13T16:14:55.031Z,102202.00
2019-05-13T16:17:36.677Z,102180.00
2019-05-13T16:19:55.105Z,102200.00
2019-05-13T16:22:23.256Z,102210.00
2019-05-13T16:24:52.186Z,102205.00
2019-05-13T16:27:21.743Z,102191.00
2019-05-13T16:29:51.562Z,102190.00
2019-05-13T16:32:19.710Z,102178.00
2019-05-13T16:34:47.640Z,102191.00
2019-05-13T16:37:15.605Z,102191.00
2019-05-13T16:39:43.623Z,102186.00
2019-05-13T16:42:11.800Z,102198.00
2019-05-13T16:44:40.117Z,102186.00
2019-05-13T16:47:08.687Z,102188.00
2019-05-13T16:49:36.793Z,102183.00
2019-05-13T16:52:04.959Z,102195.00
2019-05-13T16:54:33.236Z,102187.00
2019-05-13T16:57:01.305Z,102189.00
2019-05-13T16:59:31.485Z,102181.00
2019-05-13T17:02:01.587Z,102193.00
2019-05-13T17:04:29.279Z,102187.00
2019-05-13T17:06:57.244Z,102101.00
2019-05-13T17:09:25.239Z,102191.00
2019-05-13T17:11:53.256Z,102182.00
2019-05-13T17:14:21.657Z,102198.00
2019-05-13T17:16:51.701Z,102190.00
2019-05-13T17:19:19.774Z,102189.00
2019-05-13T17:21:52.029Z,102202.00
2019-05-13T17:24:22.608Z,102194.00
2019-05-13T17:26:52.274Z,102191.00
2019-05-13T17:29:21.160Z,102206.00
2019-05-13T17:31:51.531Z,102188.00
2019-05-13T17:34:21.189Z,102187.00
2019-05-13T17:36:51.705Z,102194.00
2019-05-13T17:39:21.315Z,102203.00
2019-05-13T17:41:49.304Z,102195.00
2019-05-13T17:44:17.497Z,102197.00
2019-05-13T17:46:45.507Z,102208.00
2019-05-13T17:49:13.939Z,102195.00
2019-05-13T17:51:42.731Z,102191.00
2019-05-13T17:54:11.799Z,102208.00
2019-05-13T17:56:40.052Z,102198.00
2019-05-13T17:59:08.406Z,102190.00
2019-05-13T18:01:36.380Z,102190.00
2019-05-13T18:04:04.543Z,102189.00
2019-05-13T18:06:32.533Z,102186.00
2019-05-13T18:09:01.199Z,102128.00
2019-05-13T18:11:29.692Z,102180.00
2019-05-13T18:13:57.780Z,102184.00
2019-05-13T18:16:25.898Z,102184.00
2019-05-13T18:18:53.981Z,102184.00
2019-05-13T18:21:22.012Z,102178.00
2019-05-13T18:23:52.135Z,102185.00
2019-05-13T18:26:21.597Z,102192.00
2019-05-13T18:28:51.496Z,102185.00
2019-05-13T18:31:19.598Z,102192.00
2019-05-13T18:33:47.835Z,102186.00
2019-05-13T18:36:15.969Z,102189.00
2019-05-13T18:38:44.120Z,102187.00
2019-05-13T18:41:12.236Z,102189.00
2019-05-13T18:43:41.360Z,102189.00
2019-05-13T18:46:12.219Z,102188.00
2019-05-13T18:48:57.196Z,102180.00
2019-05-13T18:51:11.865Z,102182.00
2019-05-13T18:53:41.609Z,102184.00
2019-05-13T18:56:12.240Z,102184.00
2019-05-13T18:58:39.926Z,102191.00
2019-05-13T19:01:08.211Z,102191.00
2019-05-13T19:03:36.294Z,102194.00
2019-05-13T19:06:04.478Z,102194.00
2019-05-13T19:08:32.596Z,102191.00
2019-05-13T19:11:01.367Z,102191.00
2019-05-13T19:13:32.267Z,102196.00
2019-05-13T19:16:02.147Z,102201.00
2019-05-13T19:18:32.032Z,102195.00
2019-05-13T19:21:01.873Z,102201.00
2019-05-13T19:23:31.483Z,102204.00
2019-05-13T19:26:01.919Z,102208.00
2019-05-13T19:28:31.774Z,102206.00
2019-05-13T19:31:04.091Z,102200.00
2019-05-13T19:33:32.195Z,102200.00
2019-05-13T19:36:01.421Z,102203.00
2019-05-13T19:38:31.883Z,102197.00
2019-05-13T19:41:01.895Z,102130.00
2019-05-13T19:43:31.416Z,102206.00
2019-05-13T19:46:01.527Z,102201.00
2019-05-13T19:48:32.351Z,102201.00
2019-05-13T19:51:01.575Z,102213.00
2019-05-13T19:53:31.915Z,102207.00
2019-05-13T19:56:01.410Z,102213.00
2019-05-13T19:58:32.085Z,102207.00
2019-05-13T20:01:00.264Z,102204.00
2019-05-13T20:03:28.478Z,102214.00
2019-05-13T20:05:57.068Z,102207.00
2019-05-13T20:08:25.709Z,102211.00
2019-05-13T20:10:54.204Z,102191.00
2019-05-13T20:13:22.358Z,102210.00
2019-05-13T20:15:51.860Z,102195.00
2019-05-13T20:18:22.490Z,102201.00
2019-05-13T20:20:51.914Z,102207.00
2019-05-13T20:23:21.423Z,102203.00
2019-05-13T20:25:52.202Z,102204.00
2019-05-13T20:28:20.818Z,102204.00
2019-05-13T20:30:51.160Z,102211.00
2019-05-13T20:33:22.091Z,102211.00
2019-05-13T20:35:50.285Z,102212.00
2019-05-13T20:38:18.415Z,102204.00
2019-05-13T20:40:46.586Z,102211.00
2019-05-13T20:43:14.943Z,102212.00
2019-05-13T20:45:43.260Z,102208.00
2019-05-13T20:48:11.989Z,102134.00
2019-05-13T20:50:41.272Z,102213.00
2019-05-13T20:53:11.556Z,102203.00
2019-05-13T20:55:41.776Z,102204.00
2019-05-13T20:58:12.519Z,102205.00
2019-05-13T21:00:42.028Z,102205.00
2019-05-13T21:03:11.724Z,102206.00
2019-05-13T21:05:41.557Z,102203.00
2019-05-13T21:08:10.944Z,102208.00
2019-05-13T21:10:39.360Z,102200.00
2019-05-13T21:13:07.515Z,102195.00
2019-05-13T21:15:35.547Z,102194.00
2019-05-13T21:18:03.770Z,102193.00
2019-05-13T21:20:32.151Z,102199.00
2019-05-13T21:23:02.282Z,102203.00
2019-05-13T21:25:31.096Z,102192.00
2019-05-13T21:27:59.290Z,102191.00
2019-05-13T21:30:27.387Z,102187.00
2019-05-13T21:32:55.278Z,102195.00
2019-05-13T21:35:23.240Z,102197.00
2019-05-13T21:37:51.464Z,102191.00
2019-05-13T21:40:21.560Z,102198.00
2019-05-13T21:42:49.516Z,102196.00
2019-05-13T21:45:17.616Z,102197.00
2019-05-13T21:47:45.923Z,102189.00
2019-05-13T21:50:14.142Z,102190.00
2019-05-13T21:52:42.494Z,102188.00
2019-05-13T21:55:11.471Z,102186.00
2019-05-13T21:57:41.499Z,102189.00
2019-05-13T22:00:15.458Z,102193.00
2019-05-13T22:02:45.557Z,102194.00
2019-05-13T22:05:14.167Z,102188.00
2019-05-13T22:07:42.270Z,102200.00
2019-05-13T22:10:11.459Z,102197.00
2019-05-13T22:12:41.446Z,102197.00
2019-05-13T22:15:09.809Z,102194.00
2019-05-13T22:17:38.049Z,102190.00
2019-05-13T22:20:07.444Z,102189.00
2019-05-13T22:22:35.649Z,102193.00
2019-05-13T22:25:04.971Z,102177.00
2019-05-13T22:27:32.971Z,102181.00
2019-05-13T22:30:01.401Z,102185.00
2019-05-13T22:32:29.542Z,102183.00
2019-05-13T22:34:58.516Z,102183.00
2019-05-13T22:37:26.625Z,102190.00
2019-05-13T22:39:55.229Z,102184.00
2019-05-13T22:42:23.577Z,102181.00
2019-05-13T22:44:52.287Z,102191.00
2019-05-13T22:47:22.010Z,102186.00
2019-05-13T22:49:50.522Z,102179.00
2019-05-13T22:52:18.708Z,102180.00
2019-05-13T22:54:46.685Z,102183.00
2019-05-13T22:57:14.644Z,102189.00
2019-05-13T22:59:42.656Z,102188.00
2019-05-13T23:02:10.808Z,102189.00
2019-05-13T23:04:39.024Z,102189.00
2019-05-13T23:07:08.284Z,102187.00
2019-05-13T23:09:36.335Z,102193.00
2019-05-13T23:12:05.570Z,102198.00
2019-05-13T23:14:33.544Z,102188.00
2019-05-13T23:17:02.114Z,102198.00
2019-05-13T23:19:32.372Z,102186.00
2019-05-13T23:22:01.606Z,102187.00
2019-05-13T23:24:31.182Z,102181.00
2019-05-13T23:27:01.959Z,102178.00
2019-05-13T23:29:31.711Z,102172.00
2019-05-13T23:32:01.431Z,102180.00
2019-05-13T23:34:31.718Z,102174.00
2019-05-13T23:36:59.525Z,102172.00
2019-05-13T23:39:27.500Z,102153.00
2019-05-13T23:41:56.230Z,102159.00
2019-05-13T23:44:28.003Z,102151.00
2019-05-13T23:46:54.634Z,102159.00
2019-05-13T23:49:22.706Z,102152.00
2019-05-13T23:51:52.007Z,102156.00
2019-05-13T23:54:21.372Z,102155.00
2019-05-13T23:56:49.562Z,102157.00
2019-05-13T23:59:17.534Z,102161.00
